sensor_id;sensor_type;location;lat;lon;timestamp;temperature;humidity
21950;DHT22;11139;51.284;7.226;2023-08-31T03:31:24;15.30;99.90
21950;DHT22;11139;51.284;7.226;2023-08-31T03:33:50;15.30;99.90
21950;DHT22;11139;51.284;7.226;2023-08-31T03:36:15;15.30;99.90
21950;DHT22;11139;51.284;7.226;2023-08-31T03:38:41;15.30;99.90
21950;DHT22;11139;51.284;7.226;2023-08-31T03:41:06;15.30;99.90
21950;DHT22;11139;51.284;7.226;2023-08-31T03:43:32;15.30;99.90
21950;DHT22;11139;51.284;7.226;2023-08-31T03:45:58;15.30;99.90
21950;DHT22;11139;51.284;7.226;2023-08-31T03:48:24;15.30;99.90
21950;DHT22;11139;51.284;7.226;2023-08-31T03:50:52;15.30;99.90
21950;DHT22;11139;51.284;7.226;2023-08-31T03:53:18;15.30;99.90
21950;DHT22;11139;51.284;7.226;2023-08-31T03:55:46;15.30;99.90
21950;DHT22;11139;51.284;7.226;2023-08-31T03:58:12;15.20;99.90
21950;DHT22;11139;51.284;7.226;2023-08-31T04:00:37;15.30;99.90
21950;DHT22;11139;51.284;7.226;2023-08-31T04:03:03;15.30;99.90
21950;DHT22;11139;51.284;7.226;2023-08-31T04:05:32;15.30;99.90
21950;DHT22;11139;51.284;7.226;2023-08-31T04:08:01;15.30;99.90
21950;DHT22;11139;51.284;7.226;2023-08-31T04:10:26;15.20;99.90
21950;DHT22;11139;51.284;7.226;2023-08-31T04:12:55;15.20;99.90
21950;DHT22;11139;51.284;7.226;2023-08-31T04:15:20;15.20;99.90
21950;DHT22;11139;51.284;7.226;2023-08-31T04:17:46;15.30;99.90
21950;DHT22;11139;51.284;7.226;2023-08-31T04:20:12;15.30;99.90
21950;DHT22;11139;51.284;7.226;2023-08-31T04:22:37;15.30;99.90
21950;DHT22;11139;51.284;7.226;2023-08-31T04:25:06;15.20;99.90
21950;DHT22;11139;51.284;7.226;2023-08-31T04:27:31;15.30;99.90
21950;DHT22;11139;51.284;7.226;2023-08-31T04:29:58;15.20;99.90
21950;DHT22;11139;51.284;7.226;2023-08-31T04:32:24;15.30;99.90
21950;DHT22;11139;51.284;7.226;2023-08-31T04:34:51;15.20;99.90
21950;DHT22;11139;51.284;7.226;2023-08-31T04:37:16;15.20;99.90
21950;DHT22;11139;51.284;7.226;2023-08-31T04:39:42;15.20;99.90
21950;DHT22;11139;51.284;7.226;2023-08-31T04:42:07;15.20;99.90
21950;DHT22;11139;51.284;7.226;2023-08-31T04:44:34;15.20;99.90
21950;DHT22;11139;51.284;7.226;2023-08-31T04:46:59;15.20;99.90
21950;DHT22;11139;51.284;7.226;2023-08-31T04:49:25;15.20;99.90
21950;DHT22;11139;51.284;7.226;2023-08-31T04:51:52;15.20;99.90
21950;DHT22;11139;51.284;7.226;2023-08-31T04:54:17;15.20;99.90
21950;DHT22;11139;51.284;7.226;2023-08-31T04:56:43;15.20;99.90
21950;DHT22;11139;51.284;7.226;2023-08-31T04:59:08;15.20;99.90
21950;DHT22;11139;51.284;7.226;2023-08-31T05:01:34;15.20;99.90
21950;DHT22;11139;51.284;7.226;2023-08-31T05:04:00;15.20;99.90
21950;DHT22;11139;51.284;7.226;2023-08-31T05:06:25;15.20;99.90
21950;DHT22;11139;51.284;7.226;2023-08-31T05:08:51;15.20;99.90
21950;DHT22;11139;51.284;7.226;2023-08-31T05:11:17;15.20;99.90
21950;DHT22;11139;51.284;7.226;2023-08-31T05:13:42;15.20;99.90
21950;DHT22;11139;51.284;7.226;2023-08-31T05:16:08;15.20;99.90
21950;DHT22;11139;51.284;7.226;2023-08-31T05:18:34;15.20;99.90
21950;DHT22;11139;51.284;7.226;2023-08-31T05:20:59;15.20;99.90
21950;DHT22;11139;51.284;7.226;2023-08-31T05:23:25;15.20;99.90
21950;DHT22;11139;51.284;7.226;2023-08-31T05:25:50;15.10;99.90
21950;DHT22;11139;51.284;7.226;2023-08-31T05:28:18;15.10;99.90
21950;DHT22;11139;51.284;7.226;2023-08-31T05:30:47;15.10;99.90
21950;DHT22;11139;51.284;7.226;2023-08-31T05:33:14;15.10;99.90
21950;DHT22;11139;51.284;7.226;2023-08-31T05:35:39;15.10;99.90
21950;DHT22;11139;51.284;7.226;2023-08-31T05:38:08;15.10;99.90
21950;DHT22;11139;51.284;7.226;2023-08-31T05:40:36;15.10;99.90
21950;DHT22;11139;51.284;7.226;2023-08-31T05:43:01;15.10;99.90
21950;DHT22;11139;51.284;7.226;2023-08-31T05:45:31;15.10;99.90
21950;DHT22;11139;51.284;7.226;2023-08-31T05:47:56;15.10;99.90
21950;DHT22;11139;51.284;7.226;2023-08-31T05:50:22;15.10;99.90
21950;DHT22;11139;51.284;7.226;2023-08-31T05:52:50;15.10;99.90
21950;DHT22;11139;51.284;7.226;2023-08-31T05:55:18;15.10;99.90
21950;DHT22;11139;51.284;7.226;2023-08-31T05:57:44;15.10;99.90
21950;DHT22;11139;51.284;7.226;2023-08-31T06:00:16;15.10;99.90
21950;DHT22;11139;51.284;7.226;2023-08-31T06:02:48;15.10;99.90
21950;DHT22;11139;51.284;7.226;2023-08-31T06:05:16;15.10;99.90
21950;DHT22;11139;51.284;7.226;2023-08-31T06:07:42;15.10;99.90
21950;DHT22;11139;51.284;7.226;2023-08-31T06:10:07;15.10;99.90
21950;DHT22;11139;51.284;7.226;2023-08-31T06:12:33;15.10;99.90
21950;DHT22;11139;51.284;7.226;2023-08-31T06:14:58;15.10;99.90
21950;DHT22;11139;51.284;7.226;2023-08-31T06:17:25;15.10;99.90
21950;DHT22;11139;51.284;7.226;2023-08-31T06:19:51;15.10;99.90
21950;DHT22;11139;51.284;7.226;2023-08-31T06:22:17;15.10;99.90
21950;DHT22;11139;51.284;7.226;2023-08-31T06:24:43;15.10;99.90
21950;DHT22;11139;51.284;7.226;2023-08-31T06:27:09;15.10;99.90
21950;DHT22;11139;51.284;7.226;2023-08-31T06:29:35;15.10;99.90
21950;DHT22;11139;51.284;7.226;2023-08-31T06:32:08;15.10;99.90
21950;DHT22;11139;51.284;7.226;2023-08-31T06:34:33;15.10;99.90
21950;DHT22;11139;51.284;7.226;2023-08-31T06:37:01;15.10;99.90
21950;DHT22;11139;51.284;7.226;2023-08-31T06:39:28;15.10;99.90
21950;DHT22;11139;51.284;7.226;2023-08-31T06:41:54;15.10;99.90
21950;DHT22;11139;51.284;7.226;2023-08-31T06:44:20;15.10;99.90
21950;DHT22;11139;51.284;7.226;2023-08-31T06:46:45;15.00;99.90
21950;DHT22;11139;51.284;7.226;2023-08-31T06:49:13;15.00;99.90
21950;DHT22;11139;51.284;7.226;2023-08-31T06:51:40;15.10;99.90
21950;DHT22;11139;51.284;7.226;2023-08-31T06:54:05;15.00;99.90
21950;DHT22;11139;51.284;7.226;2023-08-31T06:56:37;15.00;99.90
21950;DHT22;11139;51.284;7.226;2023-08-31T06:59:05;15.00;99.90
21950;DHT22;11139;51.284;7.226;2023-08-31T07:01:31;15.00;99.90
21950;DHT22;11139;51.284;7.226;2023-08-31T07:04:03;15.10;99.90
21950;DHT22;11139;51.284;7.226;2023-08-31T07:06:29;15.00;99.90
21950;DHT22;11139;51.284;7.226;2023-08-31T07:08:55;15.00;99.90
21950;DHT22;11139;51.284;7.226;2023-08-31T07:11:20;15.10;99.90
21950;DHT22;11139;51.284;7.226;2023-08-31T07:13:46;15.00;99.90
21950;DHT22;11139;51.284;7.226;2023-08-31T07:16:15;15.00;99.90
21950;DHT22;11139;51.284;7.226;2023-08-31T07:18:40;15.00;99.90
21950;DHT22;11139;51.284;7.226;2023-08-31T07:21:06;15.10;99.90
21950;DHT22;11139;51.284;7.226;2023-08-31T07:23:31;15.10;99.90
21950;DHT22;11139;51.284;7.226;2023-08-31T07:25:59;15.00;99.90
21950;DHT22;11139;51.284;7.226;2023-08-31T07:28:25;15.10;99.90
21950;DHT22;11139;51.284;7.226;2023-08-31T07:31:01;15.00;99.90
21950;DHT22;11139;51.284;7.226;2023-08-31T07:33:27;15.00;99.90
21950;DHT22;11139;51.284;7.226;2023-08-31T07:35:52;15.10;99.90
21950;DHT22;11139;51.284;7.226;2023-08-31T07:38:18;15.10;99.90
21950;DHT22;11139;51.284;7.226;2023-08-31T07:40:43;15.10;99.90
21950;DHT22;11139;51.284;7.226;2023-08-31T07:43:09;15.00;99.90
21950;DHT22;11139;51.284;7.226;2023-08-31T07:45:34;15.00;99.90
21950;DHT22;11139;51.284;7.226;2023-08-31T07:48:00;15.10;99.90
21950;DHT22;11139;51.284;7.226;2023-08-31T07:50:26;15.10;99.90
21950;DHT22;11139;51.284;7.226;2023-08-31T07:52:51;15.00;99.90
21950;DHT22;11139;51.284;7.226;2023-08-31T07:55:17;15.00;99.90
21950;DHT22;11139;51.284;7.226;2023-08-31T07:57:42;15.00;99.90
21950;DHT22;11139;51.284;7.226;2023-08-31T08:00:08;15.00;99.90
21950;DHT22;11139;51.284;7.226;2023-08-31T08:02:34;15.00;99.90
21950;DHT22;11139;51.284;7.226;2023-08-31T08:04:59;15.00;99.90
21950;DHT22;11139;51.284;7.226;2023-08-31T08:07:25;15.00;99.90
21950;DHT22;11139;51.284;7.226;2023-08-31T08:09:50;15.10;99.90
21950;DHT22;11139;51.284;7.226;2023-08-31T08:12:16;15.10;99.90
21950;DHT22;11139;51.284;7.226;2023-08-31T08:14:41;15.10;99.90
21950;DHT22;11139;51.284;7.226;2023-08-31T08:17:07;15.00;99.90
21950;DHT22;11139;51.284;7.226;2023-08-31T08:19:32;15.10;99.90
21950;DHT22;11139;51.284;7.226;2023-08-31T08:21:58;15.00;99.90
21950;DHT22;11139;51.284;7.226;2023-08-31T08:24:23;15.00;99.90
21950;DHT22;11139;51.284;7.226;2023-08-31T08:26:49;15.00;99.90
21950;DHT22;11139;51.284;7.226;2023-08-31T08:29:14;15.10;99.90
21950;DHT22;11139;51.284;7.226;2023-08-31T08:31:40;15.10;99.90
21950;DHT22;11139;51.284;7.226;2023-08-31T08:34:05;15.00;99.90
21950;DHT22;11139;51.284;7.226;2023-08-31T08:36:31;15.00;99.90
21950;DHT22;11139;51.284;7.226;2023-08-31T08:38:57;15.10;99.90
21950;DHT22;11139;51.284;7.226;2023-08-31T08:41:23;15.00;99.90
21950;DHT22;11139;51.284;7.226;2023-08-31T08:43:49;15.00;99.90
21950;DHT22;11139;51.284;7.226;2023-08-31T08:46:15;15.00;99.90
21950;DHT22;11139;51.284;7.226;2023-08-31T08:48:41;15.00;99.90
21950;DHT22;11139;51.284;7.226;2023-08-31T08:51:07;15.00;99.90
21950;DHT22;11139;51.284;7.226;2023-08-31T08:53:33;15.00;99.90
21950;DHT22;11139;51.284;7.226;2023-08-31T08:55:58;15.00;99.90
21950;DHT22;11139;51.284;7.226;2023-08-31T08:58:24;15.00;99.90
21950;DHT22;11139;51.284;7.226;2023-08-31T09:00:50;15.00;99.90
21950;DHT22;11139;51.284;7.226;2023-08-31T09:03:15;15.00;99.90
21950;DHT22;11139;51.284;7.226;2023-08-31T09:05:41;15.00;99.90
21950;DHT22;11139;51.284;7.226;2023-08-31T09:08:07;15.00;99.90
21950;DHT22;11139;51.284;7.226;2023-08-31T09:10:38;15.00;99.90
21950;DHT22;11139;51.284;7.226;2023-08-31T09:13:05;15.10;99.90
21950;DHT22;11139;51.284;7.226;2023-08-31T09:15:47;15.00;99.90
21950;DHT22;11139;51.284;7.226;2023-08-31T09:18:16;15.00;99.90
21950;DHT22;11139;51.284;7.226;2023-08-31T09:20:47;15.10;99.90
21950;DHT22;11139;51.284;7.226;2023-08-31T09:23:13;15.00;99.90
21950;DHT22;11139;51.284;7.226;2023-08-31T09:25:57;15.00;99.90
21950;DHT22;11139;51.284;7.226;2023-08-31T09:28:23;15.00;99.90
21950;DHT22;11139;51.284;7.226;2023-08-31T09:30:51;15.00;99.90
21950;DHT22;11139;51.284;7.226;2023-08-31T09:33:20;15.00;99.90
21950;DHT22;11139;51.284;7.226;2023-08-31T09:38:45;15.10;99.90
21950;DHT22;11139;51.284;7.226;2023-08-31T09:41:19;15.00;99.90
21950;DHT22;11139;51.284;7.226;2023-08-31T09:43:50;15.00;99.90
21950;DHT22;11139;51.284;7.226;2023-08-31T09:46:18;15.00;99.90
21950;DHT22;11139;51.284;7.226;2023-08-31T09:48:47;15.10;99.90
21950;DHT22;11139;51.284;7.226;2023-08-31T09:51:29;15.00;99.90
21950;DHT22;11139;51.284;7.226;2023-08-31T09:54:03;15.10;99.90
21950;DHT22;11139;51.284;7.226;2023-08-31T09:56:31;15.00;99.90
21950;DHT22;11139;51.284;7.226;2023-08-31T10:02:11;15.10;99.90
21950;DHT22;11139;51.284;7.226;2023-08-31T10:07:54;15.10;99.90
21950;DHT22;11139;51.284;7.226;2023-08-31T10:10:23;15.10;99.90
21950;DHT22;11139;51.284;7.226;2023-08-31T10:13:00;15.10;99.90
21950;DHT22;11139;51.284;7.226;2023-08-31T10:18:20;15.10;99.90
21950;DHT22;11139;51.284;7.226;2023-08-31T10:20:51;15.20;99.90
21950;DHT22;11139;51.284;7.226;2023-08-31T10:23:55;15.10;99.90
21950;DHT22;11139;51.284;7.226;2023-08-31T10:26:37;15.10;99.90
21950;DHT22;11139;51.284;7.226;2023-08-31T10:32:48;15.10;99.90
21950;DHT22;11139;51.284;7.226;2023-08-31T10:36:03;15.20;99.90
21950;DHT22;11139;51.284;7.226;2023-08-31T10:41:52;15.20;99.90
21950;DHT22;11139;51.284;7.226;2023-08-31T10:44:39;15.20;99.90
21950;DHT22;11139;51.284;7.226;2023-08-31T10:47:24;15.20;99.90
21950;DHT22;11139;51.284;7.226;2023-08-31T10:53:45;15.20;99.90
21950;DHT22;11139;51.284;7.226;2023-08-31T10:56:39;15.20;99.90
21950;DHT22;11139;51.284;7.226;2023-08-31T10:59:25;15.20;99.90
21950;DHT22;11139;51.284;7.226;2023-08-31T11:23:39;15.30;99.90
21950;DHT22;11139;51.284;7.226;2023-08-31T11:26:43;15.30;99.90
21950;DHT22;11139;51.284;7.226;2023-08-31T11:29:09;15.20;99.90
21950;DHT22;11139;51.284;7.226;2023-08-31T11:32:16;15.30;99.90
21950;DHT22;11139;51.284;7.226;2023-08-31T11:35:15;15.20;99.90
21950;DHT22;11139;51.284;7.226;2023-08-31T11:41:07;15.30;99.90
21950;DHT22;11139;51.284;7.226;2023-08-31T11:43:38;15.20;99.90
21950;DHT22;11139;51.284;7.226;2023-08-31T11:46:30;15.20;99.90
21950;DHT22;11139;51.284;7.226;2023-08-31T11:48:58;15.30;99.90
21950;DHT22;11139;51.284;7.226;2023-08-31T11:54:57;15.30;99.90
21950;DHT22;11139;51.284;7.226;2023-08-31T11:57:47;15.30;99.90
21950;DHT22;11139;51.284;7.226;2023-08-31T12:00:15;15.30;99.90
21950;DHT22;11139;51.284;7.226;2023-08-31T12:02:55;15.30;99.90
21950;DHT22;11139;51.284;7.226;2023-08-31T12:05:43;15.30;99.90
21950;DHT22;11139;51.284;7.226;2023-08-31T12:08:52;15.30;99.90
21950;DHT22;11139;51.284;7.226;2023-08-31T12:11:16;15.40;99.90
21950;DHT22;11139;51.284;7.226;2023-08-31T12:23:04;15.50;99.90
21950;DHT22;11139;51.284;7.226;2023-08-31T12:26:04;15.50;99.90
21950;DHT22;11139;51.284;7.226;2023-08-31T12:35:42;15.50;99.90
21950;DHT22;11139;51.284;7.226;2023-08-31T12:38:34;15.50;99.90
21950;DHT22;11139;51.284;7.226;2023-08-31T12:41:03;15.50;99.90
21950;DHT22;11139;51.284;7.226;2023-08-31T12:43:31;15.50;99.90
21950;DHT22;11139;51.284;7.226;2023-08-31T12:47:07;15.50;99.90
21950;DHT22;11139;51.284;7.226;2023-08-31T12:48:56;15.40;99.90
21950;DHT22;11139;51.284;7.226;2023-08-31T12:51:42;15.50;99.90
21950;DHT22;11139;51.284;7.226;2023-08-31T12:54:17;15.40;99.90
21950;DHT22;11139;51.284;7.226;2023-08-31T12:56:54;15.40;99.90
21950;DHT22;11139;51.284;7.226;2023-08-31T12:59:20;15.40;99.90
21950;DHT22;11139;51.284;7.226;2023-08-31T13:04:51;15.40;99.90
21950;DHT22;11139;51.284;7.226;2023-08-31T13:07:17;15.40;99.90
21950;DHT22;11139;51.284;7.226;2023-08-31T13:09:42;15.40;99.90
21950;DHT22;11139;51.284;7.226;2023-08-31T13:12:08;15.40;99.90
21950;DHT22;11139;51.284;7.226;2023-08-31T13:14:36;15.40;99.90
21950;DHT22;11139;51.284;7.226;2023-08-31T13:17:02;15.40;99.90
21950;DHT22;11139;51.284;7.226;2023-08-31T13:19:28;15.40;99.90
21950;DHT22;11139;51.284;7.226;2023-08-31T13:21:54;15.40;99.90
21950;DHT22;11139;51.284;7.226;2023-08-31T13:24:19;15.50;99.90
21950;DHT22;11139;51.284;7.226;2023-08-31T13:26:55;15.50;99.90
21950;DHT22;11139;51.284;7.226;2023-08-31T13:29:21;15.50;99.90
21950;DHT22;11139;51.284;7.226;2023-08-31T13:31:46;15.50;99.90
21950;DHT22;11139;51.284;7.226;2023-08-31T13:34:12;15.50;99.90
21950;DHT22;11139;51.284;7.226;2023-08-31T13:36:38;15.60;99.90
21950;DHT22;11139;51.284;7.226;2023-08-31T13:39:04;15.60;99.90
21950;DHT22;11139;51.284;7.226;2023-08-31T13:41:29;15.60;99.90
21950;DHT22;11139;51.284;7.226;2023-08-31T13:43:55;15.60;99.90
21950;DHT22;11139;51.284;7.226;2023-08-31T13:46:21;15.60;99.90
21950;DHT22;11139;51.284;7.226;2023-08-31T13:48:46;15.60;99.90
21950;DHT22;11139;51.284;7.226;2023-08-31T13:51:13;15.60;99.90
21950;DHT22;11139;51.284;7.226;2023-08-31T13:53:39;15.70;99.90
21950;DHT22;11139;51.284;7.226;2023-08-31T13:56:04;15.70;99.90
21950;DHT22;11139;51.284;7.226;2023-08-31T13:58:30;15.70;99.90
21950;DHT22;11139;51.284;7.226;2023-08-31T14:00:55;15.70;99.90
21950;DHT22;11139;51.284;7.226;2023-08-31T14:03:21;15.70;99.90
21950;DHT22;11139;51.284;7.226;2023-08-31T14:05:49;15.70;99.90
21950;DHT22;11139;51.284;7.226;2023-08-31T14:08:15;15.70;99.90
21950;DHT22;11139;51.284;7.226;2023-08-31T14:10:43;15.70;99.90
21950;DHT22;11139;51.284;7.226;2023-08-31T14:13:16;15.70;99.90
21950;DHT22;11139;51.284;7.226;2023-08-31T14:15:45;15.70;99.90
21950;DHT22;11139;51.284;7.226;2023-08-31T14:18:16;15.70;99.90
21950;DHT22;11139;51.284;7.226;2023-08-31T14:20:46;15.70;99.90
21950;DHT22;11139;51.284;7.226;2023-08-31T14:23:29;15.70;99.90
21950;DHT22;11139;51.284;7.226;2023-08-31T14:26:00;15.70;99.90
21950;DHT22;11139;51.284;7.226;2023-08-31T14:28:26;15.70;99.90
21950;DHT22;11139;51.284;7.226;2023-08-31T14:30:54;15.70;99.90
21950;DHT22;11139;51.284;7.226;2023-08-31T14:33:20;15.70;99.90
21950;DHT22;11139;51.284;7.226;2023-08-31T14:35:53;15.70;99.90
21950;DHT22;11139;51.284;7.226;2023-08-31T14:38:20;15.70;99.90
21950;DHT22;11139;51.284;7.226;2023-08-31T14:44:05;15.70;99.90
21950;DHT22;11139;51.284;7.226;2023-08-31T14:46:51;15.70;99.90
21950;DHT22;11139;51.284;7.226;2023-08-31T14:49:21;15.70;99.90
21950;DHT22;11139;51.284;7.226;2023-08-31T14:51:49;15.70;99.90
21950;DHT22;11139;51.284;7.226;2023-08-31T14:54:38;15.70;99.90
21950;DHT22;11139;51.284;7.226;2023-08-31T14:57:04;15.70;99.90
21950;DHT22;11139;51.284;7.226;2023-08-31T14:59:32;15.70;99.90
21950;DHT22;11139;51.284;7.226;2023-08-31T15:02:00;15.80;99.90
21950;DHT22;11139;51.284;7.226;2023-08-31T15:04:30;15.80;99.90
21950;DHT22;11139;51.284;7.226;2023-08-31T15:07:19;15.80;99.90
21950;DHT22;11139;51.284;7.226;2023-08-31T15:09:59;15.80;99.90
21950;DHT22;11139;51.284;7.226;2023-08-31T15:12:33;15.80;99.90
21950;DHT22;11139;51.284;7.226;2023-08-31T15:14:59;15.80;99.90
21950;DHT22;11139;51.284;7.226;2023-08-31T15:17:33;15.80;99.90
21950;DHT22;11139;51.284;7.226;2023-08-31T15:20:01;15.80;99.90
21950;DHT22;11139;51.284;7.226;2023-08-31T15:22:32;15.80;99.90
21950;DHT22;11139;51.284;7.226;2023-08-31T15:25:00;15.80;99.90
21950;DHT22;11139;51.284;7.226;2023-08-31T15:27:25;15.80;99.90
21950;DHT22;11139;51.284;7.226;2023-08-31T15:29:54;15.80;99.90
21950;DHT22;11139;51.284;7.226;2023-08-31T15:32:27;15.70;99.90
21950;DHT22;11139;51.284;7.226;2023-08-31T15:34:53;15.80;99.90
21950;DHT22;11139;51.284;7.226;2023-08-31T15:37:19;15.80;99.90
21950;DHT22;11139;51.284;7.226;2023-08-31T15:39:45;15.80;99.90
21950;DHT22;11139;51.284;7.226;2023-08-31T15:42:11;15.80;99.90
21950;DHT22;11139;51.284;7.226;2023-08-31T15:44:40;15.80;99.90
21950;DHT22;11139;51.284;7.226;2023-08-31T15:47:06;15.70;99.90
21950;DHT22;11139;51.284;7.226;2023-08-31T15:49:32;15.80;99.90
21950;DHT22;11139;51.284;7.226;2023-08-31T15:51:58;15.80;99.90
21950;DHT22;11139;51.284;7.226;2023-08-31T15:54:27;15.70;99.90
21950;DHT22;11139;51.284;7.226;2023-08-31T15:56:55;15.70;99.90
21950;DHT22;11139;51.284;7.226;2023-08-31T15:59:20;15.70;99.90
21950;DHT22;11139;51.284;7.226;2023-08-31T16:01:49;15.80;99.90
21950;DHT22;11139;51.284;7.226;2023-08-31T16:04:17;15.70;99.90
21950;DHT22;11139;51.284;7.226;2023-08-31T16:06:43;15.70;99.90
21950;DHT22;11139;51.284;7.226;2023-08-31T16:09:08;15.80;99.90
21950;DHT22;11139;51.284;7.226;2023-08-31T16:11:34;15.70;99.90
21950;DHT22;11139;51.284;7.226;2023-08-31T16:14:00;15.80;99.90
21950;DHT22;11139;51.284;7.226;2023-08-31T16:16:25;15.70;99.90
21950;DHT22;11139;51.284;7.226;2023-08-31T16:18:53;15.70;99.90
21950;DHT22;11139;51.284;7.226;2023-08-31T16:21:21;15.70;99.90
21950;DHT22;11139;51.284;7.226;2023-08-31T16:23:54;15.80;99.90
21950;DHT22;11139;51.284;7.226;2023-08-31T16:26:20;15.80;99.90
21950;DHT22;11139;51.284;7.226;2023-08-31T16:28:45;15.70;99.90
21950;DHT22;11139;51.284;7.226;2023-08-31T16:34:18;15.70;99.90
21950;DHT22;11139;51.284;7.226;2023-08-31T16:39:44;15.80;99.90
21950;DHT22;11139;51.284;7.226;2023-08-31T16:42:28;15.80;99.90
21950;DHT22;11139;51.284;7.226;2023-08-31T16:44:56;15.80;99.90
21950;DHT22;11139;51.284;7.226;2023-08-31T16:47:22;15.80;99.90
21950;DHT22;11139;51.284;7.226;2023-08-31T16:49:50;15.70;99.90
21950;DHT22;11139;51.284;7.226;2023-08-31T16:52:15;15.80;99.90
21950;DHT22;11139;51.284;7.226;2023-08-31T16:54:50;15.80;99.90
21950;DHT22;11139;51.284;7.226;2023-08-31T17:00:22;15.80;99.90
21950;DHT22;11139;51.284;7.226;2023-08-31T17:03:07;15.80;99.90
21950;DHT22;11139;51.284;7.226;2023-08-31T17:05:32;15.80;99.90
21950;DHT22;11139;51.284;7.226;2023-08-31T17:07:58;15.80;99.90
21950;DHT22;11139;51.284;7.226;2023-08-31T17:10:23;15.80;99.90
21950;DHT22;11139;51.284;7.226;2023-08-31T17:12:49;15.80;99.90
21950;DHT22;11139;51.284;7.226;2023-08-31T17:15:14;15.80;99.90
21950;DHT22;11139;51.284;7.226;2023-08-31T17:17:40;15.80;99.90
21950;DHT22;11139;51.284;7.226;2023-08-31T17:20:09;15.80;99.90
21950;DHT22;11139;51.284;7.226;2023-08-31T17:22:44;15.80;99.90
21950;DHT22;11139;51.284;7.226;2023-08-31T17:25:10;15.80;99.90
21950;DHT22;11139;51.284;7.226;2023-08-31T17:27:36;15.80;99.90
21950;DHT22;11139;51.284;7.226;2023-08-31T17:30:02;15.80;99.90
21950;DHT22;11139;51.284;7.226;2023-08-31T18:16:56;15.80;99.90
21950;DHT22;11139;51.284;7.226;2023-08-31T18:41:37;15.80;99.90
